createdAt,value
2022-07-31T00:00:30.899Z,97690.00
2022-07-31T00:03:08.616Z,97690.60
2022-07-31T00:05:38.680Z,97692.17
2022-07-31T00:08:11.391Z,97691.64
2022-07-31T00:10:40.397Z,97691.38
2022-07-31T00:13:11.411Z,97688.55
2022-07-31T00:15:40.559Z,97690.02
2022-07-31T00:18:09.402Z,97693.25
2022-07-31T00:20:38.222Z,97690.88
2022-07-31T00:23:07.433Z,97694.21
2022-07-31T00:25:36.475Z,97690.11
2022-07-31T00:28:07.299Z,97689.54
2022-07-31T00:30:36.225Z,97687.37
2022-07-31T00:33:05.901Z,97688.26
2022-07-31T00:35:34.703Z,97686.36
2022-07-31T00:40:52.664Z,97684.38
2022-07-31T00:43:21.860Z,97686.80
2022-07-31T00:45:58.548Z,97688.45
2022-07-31T00:48:28.119Z,97687.95
2022-07-31T00:50:57.148Z,97689.86
2022-07-31T00:53:26.086Z,97690.20
2022-07-31T00:55:56.741Z,97688.87
2022-07-31T00:58:26.678Z,97693.80
2022-07-31T01:00:58.635Z,97691.86
2022-07-31T01:03:27.386Z,97694.13
2022-07-31T01:05:56.313Z,97693.66
2022-07-31T01:08:25.349Z,97694.53
2022-07-31T01:10:58.872Z,97700.94
2022-07-31T01:13:35.931Z,97702.99
2022-07-31T01:16:09.476Z,97710.52
2022-07-31T01:18:39.521Z,97712.08
2022-07-31T01:21:11.890Z,97714.52
2022-07-31T01:24:04.232Z,97715.30
2022-07-31T01:26:59.042Z,97711.52
2022-07-31T01:29:32.591Z,97715.66
2022-07-31T01:32:06.002Z,97718.40
2022-07-31T01:34:41.425Z,97716.98
2022-07-31T01:37:17.525Z,97718.66
2022-07-31T01:39:54.610Z,97716.30
2022-07-31T01:42:26.644Z,97719.18
2022-07-31T01:45:00.266Z,97719.96
2022-07-31T01:47:32.617Z,97718.45
2022-07-31T01:50:05.475Z,97715.12
2022-07-31T01:52:36.389Z,97717.40
2022-07-31T01:55:13.018Z,97715.28
2022-07-31T01:57:45.094Z,97712.46
2022-07-31T02:00:33.929Z,97710.36
2022-07-31T02:03:13.298Z,97710.77
2022-07-31T02:05:44.448Z,97705.69
2022-07-31T02:08:17.188Z,97705.86
2022-07-31T02:10:47.628Z,97704.10
2022-07-31T02:13:17.849Z,97700.34
2022-07-31T02:15:48.392Z,97699.24
2022-07-31T02:18:23.001Z,97697.91
2022-07-31T02:21:17.426Z,97698.95
2022-07-31T02:23:46.483Z,97697.52
2022-07-31T02:26:16.815Z,97696.59
2022-07-31T02:28:46.628Z,97696.75
2022-07-31T02:31:17.294Z,97695.16
2022-07-31T02:33:49.279Z,97695.52
2022-07-31T02:36:21.605Z,97692.91
2022-07-31T02:38:52.310Z,97688.42
2022-07-31T02:41:22.477Z,97685.21
2022-07-31T02:43:52.614Z,97691.19
2022-07-31T02:46:23.389Z,97692.10
2022-07-31T02:48:52.696Z,97692.48
2022-07-31T02:51:24.353Z,97691.09
2022-07-31T02:53:55.894Z,97689.05
2022-07-31T02:56:25.469Z,97688.81
2022-07-31T02:58:58.091Z,97686.91
2022-07-31T03:01:28.217Z,97685.48
2022-07-31T03:03:57.802Z,97685.64
2022-07-31T03:06:29.899Z,97685.35
2022-07-31T03:08:59.066Z,97685.33
2022-07-31T03:11:28.185Z,97689.27
2022-07-31T03:14:02.739Z,97690.94
2022-07-31T03:16:33.545Z,97689.25
2022-07-31T03:19:05.098Z,97689.23
2022-07-31T03:21:35.679Z,97690.20
2022-07-31T03:24:06.449Z,97694.06
2022-07-31T03:26:37.274Z,97691.70
2022-07-31T03:29:36.100Z,97695.40
2022-07-31T03:31:55.891Z,97694.77
2022-07-31T03:34:24.647Z,97696.34
2022-07-31T03:36:55.012Z,97698.07
2022-07-31T03:39:24.657Z,97696.95
2022-07-31T03:41:56.675Z,97697.02
2022-07-31T03:44:26.126Z,97695.95
2022-07-31T03:46:55.239Z,97700.69
2022-07-31T03:49:24.974Z,97694.88
2022-07-31T03:51:54.449Z,97693.82
2022-07-31T03:54:23.467Z,97699.33
2022-07-31T03:57:08.186Z,97697.42
2022-07-31T03:59:47.967Z,97701.25
2022-07-31T04:02:19.235Z,97697.23
2022-07-31T04:04:51.307Z,97700.35
2022-07-31T04:07:20.706Z,97702.42
2022-07-31T04:09:49.794Z,97702.73
2022-07-31T04:12:19.008Z,97693.77
2022-07-31T04:14:47.996Z,97694.21
2022-07-31T04:17:16.878Z,97691.73
2022-07-31T04:19:45.827Z,97689.27
2022-07-31T04:22:14.817Z,97689.33
2022-07-31T04:24:43.720Z,97693.71
2022-07-31T04:27:48.322Z,97696.61
2022-07-31T04:30:18.878Z,97696.42
2022-07-31T04:32:48.820Z,97697.20
2022-07-31T04:35:22.675Z,97693.80
2022-07-31T04:37:51.631Z,97698.48
2022-07-31T04:40:25.800Z,97700.26
2022-07-31T04:42:55.772Z,97702.52
2022-07-31T04:45:25.381Z,97703.83
2022-07-31T04:47:55.173Z,97705.81
2022-07-31T04:50:24.132Z,97710.33
2022-07-31T04:53:00.455Z,97714.95
2022-07-31T04:55:34.805Z,97714.15
2022-07-31T04:58:04.329Z,97718.29
2022-07-31T05:00:33.282Z,97718.31
2022-07-31T05:03:02.499Z,97722.98
2022-07-31T05:05:31.982Z,97724.43
2022-07-31T05:08:01.687Z,97729.86
2022-07-31T05:10:57.131Z,97733.72
2022-07-31T05:13:26.136Z,97732.00
2022-07-31T05:15:57.374Z,97737.11
2022-07-31T05:18:26.363Z,97737.81
2022-07-31T05:21:33.563Z,97741.92
2022-07-31T05:24:33.332Z,97746.76
2022-07-31T05:27:09.003Z,97753.34
2022-07-31T05:29:38.490Z,97751.70
2022-07-31T05:32:08.782Z,97756.81
2022-07-31T05:34:39.044Z,97761.41
2022-07-31T05:37:08.003Z,97762.35
2022-07-31T05:39:40.654Z,97761.40
2022-07-31T05:42:28.103Z,97762.80
2022-07-31T05:44:59.886Z,97765.96
2022-07-31T05:47:40.789Z,97767.34
2022-07-31T05:50:13.805Z,97766.71
2022-07-31T05:52:43.534Z,97769.09
2022-07-31T05:55:32.946Z,97769.33
2022-07-31T05:58:27.968Z,97771.40
2022-07-31T06:00:56.893Z,97767.33
2022-07-31T06:03:29.180Z,97768.84
2022-07-31T06:06:03.948Z,97773.15
2022-07-31T06:08:33.461Z,97777.69
2022-07-31T06:11:02.680Z,97782.20
2022-07-31T06:13:31.883Z,97780.13
2022-07-31T06:16:14.276Z,97785.02
2022-07-31T06:18:44.018Z,97781.84
2022-07-31T06:23:41.433Z,97780.64
2022-07-31T06:26:27.737Z,97782.75
2022-07-31T06:28:56.760Z,97786.65
2022-07-31T06:31:26.141Z,97787.45
2022-07-31T06:33:57.954Z,97790.00
2022-07-31T06:36:30.521Z,97794.84
2022-07-31T06:39:00.510Z,97792.77
2022-07-31T06:41:46.646Z,97790.48
2022-07-31T06:44:40.432Z,97785.70
2022-07-31T06:47:34.542Z,97788.52
2022-07-31T06:50:11.205Z,97785.02
2022-07-31T06:52:49.234Z,97784.98
2022-07-31T06:55:18.178Z,97783.70
2022-07-31T06:57:47.329Z,97781.16
2022-07-31T07:00:20.369Z,97787.23
2022-07-31T07:02:51.712Z,97782.36
2022-07-31T07:05:21.062Z,97787.58
2022-07-31T07:07:52.494Z,97786.91
2022-07-31T07:10:21.930Z,97787.55
2022-07-31T07:13:17.004Z,97786.02
2022-07-31T07:15:46.004Z,97786.81
2022-07-31T07:18:16.459Z,97788.99
2022-07-31T07:20:54.829Z,97789.52
2022-07-31T07:23:25.985Z,97790.81
2022-07-31T07:26:33.817Z,97798.59
2022-07-31T07:29:03.774Z,97801.20
2022-07-31T07:31:32.883Z,97803.25
2022-07-31T07:34:05.676Z,97800.27
2022-07-31T07:36:34.798Z,97796.29
2022-07-31T07:39:11.815Z,97795.34
2022-07-31T07:41:41.855Z,97797.06
2022-07-31T07:44:10.667Z,97796.45
2022-07-31T07:46:39.665Z,97794.11
2022-07-31T07:49:09.282Z,97796.61
2022-07-31T07:52:10.192Z,97799.38
2022-07-31T07:54:50.809Z,97800.73
2022-07-31T07:57:43.479Z,97806.79
2022-07-31T08:00:41.844Z,97807.79
2022-07-31T08:03:49.567Z,97806.18
2022-07-31T08:06:04.675Z,97808.58
2022-07-31T08:08:33.947Z,97810.61
2022-07-31T08:11:23.098Z,97806.98
2022-07-31T08:13:59.210Z,97812.65
2022-07-31T08:16:43.714Z,97816.84
2022-07-31T08:19:12.721Z,97819.64
2022-07-31T08:21:43.572Z,97824.92
2022-07-31T08:24:12.853Z,97826.89
2022-07-31T08:27:03.973Z,97826.95
2022-07-31T08:29:39.916Z,97833.59
2022-07-31T08:32:21.830Z,97834.49
2022-07-31T08:35:10.049Z,97833.34
2022-07-31T08:37:52.179Z,97836.52
2022-07-31T08:40:34.931Z,97835.42
2022-07-31T08:46:07.352Z,97837.06
2022-07-31T08:48:42.135Z,97831.65
2022-07-31T08:51:13.080Z,97834.88
2022-07-31T08:54:11.792Z,97831.95
2022-07-31T08:56:41.640Z,97835.05
2022-07-31T08:59:10.536Z,97833.42
2022-07-31T09:01:40.514Z,97831.65
2022-07-31T09:04:09.367Z,97830.64
2022-07-31T09:06:39.223Z,97834.27
2022-07-31T09:09:08.083Z,97834.86
2022-07-31T09:11:47.154Z,97835.92
2022-07-31T09:14:49.145Z,97836.72
2022-07-31T09:17:18.101Z,97836.19
2022-07-31T09:19:53.556Z,97833.20
2022-07-31T09:22:31.073Z,97836.44
2022-07-31T09:25:11.781Z,97840.80
2022-07-31T09:27:40.952Z,97840.64
2022-07-31T09:30:11.857Z,97843.21
2022-07-31T09:33:17.399Z,97840.54
2022-07-31T09:36:10.347Z,97841.10
2022-07-31T09:38:41.794Z,97841.45
2022-07-31T09:42:00.831Z,97843.08
2022-07-31T09:44:51.533Z,97842.70
2022-07-31T09:47:26.247Z,97842.73
2022-07-31T09:49:58.139Z,97842.47
2022-07-31T09:52:28.795Z,97843.06
2022-07-31T09:55:14.256Z,97844.20
2022-07-31T10:24:07.486Z,97856.58
2022-07-31T10:26:59.266Z,97862.41
2022-07-31T10:29:27.487Z,97859.93
2022-07-31T10:32:03.122Z,97865.60
2022-07-31T10:34:34.938Z,97864.25
2022-07-31T10:37:32.092Z,97870.11
2022-07-31T10:40:27.210Z,97871.44
2022-07-31T10:43:27.293Z,97876.58
2022-07-31T10:46:30.323Z,97877.02
2022-07-31T10:49:18.058Z,97873.92
2022-07-31T10:52:32.597Z,97877.70
2022-07-31T10:55:31.811Z,97881.41
2022-07-31T10:58:30.492Z,97884.00
2022-07-31T11:01:09.736Z,97881.89
2022-07-31T11:03:59.307Z,97883.95
2022-07-31T11:06:42.976Z,97886.66
2022-07-31T11:09:45.459Z,97886.97
2022-07-31T11:13:04.484Z,97891.98
2022-07-31T11:15:50.011Z,97894.72
2022-07-31T11:18:37.647Z,97898.30
2022-07-31T11:21:29.127Z,97899.10
2022-07-31T11:24:04.098Z,97905.05
2022-07-31T11:26:41.343Z,97907.79
2022-07-31T11:29:59.507Z,97904.59
2022-07-31T11:32:14.570Z,97909.17
2022-07-31T11:34:52.834Z,97912.96
2022-07-31T11:37:23.557Z,97909.00
2022-07-31T11:39:53.978Z,97909.17
2022-07-31T11:42:27.299Z,97910.08
2022-07-31T11:45:12.363Z,97907.62
2022-07-31T11:48:10.777Z,97903.34
2022-07-31T11:50:40.547Z,97906.81
2022-07-31T11:53:11.091Z,97906.23
2022-07-31T11:55:48.515Z,97910.29
2022-07-31T11:58:19.221Z,97904.72
2022-07-31T12:00:53.258Z,97911.08
2022-07-31T12:03:25.971Z,97910.49
2022-07-31T12:05:55.778Z,97910.22
2022-07-31T12:08:26.775Z,97909.33
2022-07-31T12:10:57.435Z,97903.72
2022-07-31T12:13:27.208Z,97917.11
2022-07-31T12:15:59.439Z,97916.91
2022-07-31T12:18:30.904Z,97920.89
2022-07-31T12:21:02.607Z,97925.89
2022-07-31T12:23:42.406Z,97918.79
2022-07-31T12:26:21.199Z,97930.11
2022-07-31T12:28:58.881Z,97936.02
2022-07-31T12:31:28.295Z,97934.23
2022-07-31T12:33:57.248Z,97936.15
2022-07-31T12:36:27.095Z,97938.39
2022-07-31T12:39:11.593Z,97940.98
2022-07-31T12:41:43.414Z,97940.45
2022-07-31T12:44:14.643Z,97939.19
2022-07-31T12:46:44.111Z,97947.60
2022-07-31T12:49:13.537Z,97940.81
2022-07-31T12:51:44.978Z,97942.48
2022-07-31T12:54:17.092Z,97941.67
2022-07-31T12:56:46.586Z,97940.70
2022-07-31T12:59:15.526Z,97941.96
2022-07-31T13:01:44.680Z,97942.91
2022-07-31T13:04:19.314Z,97942.71
2022-07-31T13:06:50.602Z,97944.65
2022-07-31T13:09:20.755Z,97944.76
2022-07-31T13:11:51.239Z,97948.25
2022-07-31T13:14:23.481Z,97950.45
2022-07-31T13:16:54.376Z,97949.65
2022-07-31T13:19:23.335Z,97958.48
2022-07-31T13:21:52.195Z,97959.23
2022-07-31T13:24:25.800Z,97958.95
2022-07-31T13:26:58.176Z,97958.80
2022-07-31T13:29:30.416Z,97957.77
2022-07-31T13:31:59.562Z,97952.69
2022-07-31T13:34:28.528Z,97953.57
2022-07-31T13:36:57.843Z,97952.33
2022-07-31T13:39:26.777Z,97957.11
2022-07-31T13:41:55.580Z,97957.87
2022-07-31T13:44:24.487Z,97955.41
2022-07-31T13:46:53.524Z,97959.27
2022-07-31T13:49:22.422Z,97962.98
2022-07-31T13:51:51.853Z,97964.65
2022-07-31T13:54:23.761Z,97961.04
2022-07-31T13:56:52.690Z,97963.38
2022-07-31T13:59:22.153Z,97963.15
2022-07-31T14:02:03.359Z,97960.42
2022-07-31T14:04:38.685Z,97961.43
2022-07-31T14:07:09.587Z,97964.63
2022-07-31T14:09:47.121Z,97965.40
2022-07-31T14:12:24.288Z,97969.45
2022-07-31T14:14:53.506Z,97968.94
2022-07-31T14:17:24.807Z,97967.24
2022-07-31T14:19:54.789Z,97964.90
2022-07-31T14:22:23.731Z,97968.45
2022-07-31T14:24:52.582Z,97967.86
2022-07-31T14:27:21.451Z,97972.33
2022-07-31T14:29:50.424Z,97972.50
2022-07-31T14:32:21.743Z,97971.89
2022-07-31T14:34:50.820Z,97975.13
2022-07-31T14:37:20.140Z,97972.34
2022-07-31T14:39:49.132Z,97976.89
2022-07-31T14:42:22.027Z,97978.06
2022-07-31T14:44:54.465Z,97976.96
2022-07-31T14:47:23.583Z,97982.86
2022-07-31T14:50:08.924Z,97980.90
2022-07-31T14:52:38.985Z,97985.43
2022-07-31T14:55:09.654Z,97984.70
2022-07-31T14:57:38.605Z,97991.32
2022-07-31T15:00:12.299Z,97990.71
2022-07-31T15:02:41.591Z,97988.77
2022-07-31T15:06:38.740Z,97989.98
2022-07-31T15:08:00.384Z,97995.55
2022-07-31T15:10:33.079Z,97998.55
2022-07-31T15:13:01.181Z,98001.20
2022-07-31T15:15:33.869Z,98006.88
2022-07-31T15:18:03.473Z,98012.11
2022-07-31T15:20:33.621Z,98010.81
2022-07-31T15:23:03.165Z,98008.77
2022-07-31T15:25:32.106Z,98007.83
2022-07-31T15:28:01.034Z,98006.63
2022-07-31T15:30:30.064Z,98014.52
2022-07-31T15:32:58.972Z,98011.26
2022-07-31T15:35:28.464Z,98015.77
2022-07-31T15:37:58.886Z,98012.42
2022-07-31T15:40:30.028Z,98012.77
2022-07-31T15:43:03.093Z,98011.31
2022-07-31T15:45:32.335Z,98003.87
2022-07-31T15:48:01.861Z,98003.22
2022-07-31T15:50:31.101Z,98005.41
2022-07-31T15:53:00.222Z,98006.97
2022-07-31T15:55:32.084Z,98002.71
2022-07-31T15:58:01.103Z,97999.69
2022-07-31T16:00:30.167Z,97999.23
2022-07-31T16:02:59.906Z,97997.46
2022-07-31T16:05:36.943Z,98000.29
2022-07-31T16:08:30.191Z,98000.58
2022-07-31T16:10:58.416Z,98002.05
2022-07-31T16:13:27.569Z,98001.51
2022-07-31T16:15:56.848Z,98001.86
2022-07-31T16:18:25.871Z,98000.11
2022-07-31T16:20:54.827Z,97996.27
2022-07-31T16:23:25.096Z,97997.81
2022-07-31T16:25:58.547Z,98001.00
2022-07-31T16:28:27.278Z,98003.02
2022-07-31T16:30:56.197Z,98006.27
2022-07-31T16:33:25.098Z,98002.80
2022-07-31T16:35:54.831Z,98003.83
2022-07-31T16:38:23.685Z,98004.19
2022-07-31T16:40:54.671Z,98006.95
2022-07-31T16:43:50.928Z,98003.05
2022-07-31T16:46:16.498Z,98007.66
2022-07-31T16:48:45.338Z,98002.23
2022-07-31T16:51:14.170Z,98004.77
2022-07-31T16:54:10.483Z,98002.95
2022-07-31T16:56:32.159Z,98003.73
2022-07-31T16:59:04.028Z,98008.86
2022-07-31T17:01:56.945Z,98002.09
2022-07-31T17:04:25.923Z,98005.46
2022-07-31T17:06:55.047Z,97999.84
2022-07-31T17:09:24.758Z,98003.00
2022-07-31T17:11:56.234Z,97998.56
2022-07-31T17:14:27.120Z,97999.33
2022-07-31T17:16:57.202Z,98004.71
2022-07-31T17:19:42.605Z,98009.10
2022-07-31T17:22:18.058Z,98008.85
2022-07-31T17:24:51.658Z,98014.27
2022-07-31T17:27:21.963Z,98013.45
2022-07-31T17:29:51.050Z,98018.42
2022-07-31T17:32:20.452Z,98017.50
2022-07-31T17:34:52.423Z,98024.58
2022-07-31T17:37:21.396Z,98026.79
2022-07-31T17:39:54.644Z,98023.11
2022-07-31T17:42:28.337Z,98030.34
2022-07-31T17:44:58.252Z,98028.93
2022-07-31T17:47:30.424Z,98028.91
2022-07-31T17:50:02.988Z,98037.71
2022-07-31T17:52:32.032Z,98038.55
2022-07-31T17:55:01.279Z,98043.48
2022-07-31T17:57:32.104Z,98045.98
2022-07-31T18:00:02.921Z,98043.09
2022-07-31T18:02:33.557Z,98047.05
2022-07-31T18:05:02.642Z,98051.19
2022-07-31T18:07:35.243Z,98050.22
2022-07-31T18:10:08.406Z,98054.13
2022-07-31T18:12:38.207Z,98057.40
2022-07-31T18:15:35.806Z,98058.19
2022-07-31T18:18:06.356Z,98061.52
2022-07-31T18:20:35.012Z,98064.13
2022-07-31T18:23:03.820Z,98067.77
2022-07-31T18:25:35.618Z,98064.83
2022-07-31T18:28:08.714Z,98067.81
2022-07-31T18:30:40.347Z,98070.60
2022-07-31T18:33:13.527Z,98069.46
2022-07-31T18:35:42.884Z,98070.31
2022-07-31T18:38:12.269Z,98070.20
2022-07-31T18:40:42.496Z,98068.77
2022-07-31T18:43:11.546Z,98073.70
2022-07-31T18:45:41.514Z,98080.29
2022-07-31T18:48:11.173Z,98076.45
2022-07-31T18:50:59.547Z,98080.76
2022-07-31T18:53:34.161Z,98086.77
2022-07-31T18:56:04.485Z,98089.11
2022-07-31T18:58:34.708Z,98086.48
2022-07-31T19:01:08.438Z,98087.63
2022-07-31T19:03:40.261Z,98091.05
2022-07-31T19:06:12.187Z,98092.05
2022-07-31T19:08:42.562Z,98092.23
2022-07-31T19:11:13.570Z,98087.65
2022-07-31T19:13:44.193Z,98097.98
2022-07-31T19:16:17.867Z,98094.34
2022-07-31T19:18:50.379Z,98097.88
2022-07-31T19:21:42.166Z,98091.52
2022-07-31T19:24:12.100Z,98095.30
2022-07-31T19:26:42.818Z,98102.19
2022-07-31T19:29:13.320Z,98102.54
2022-07-31T19:31:44.673Z,98101.21
2022-07-31T19:34:16.022Z,98103.98
2022-07-31T19:36:51.527Z,98102.80
2022-07-31T19:39:21.373Z,98102.89
2022-07-31T19:42:11.938Z,98107.54
2022-07-31T19:44:43.245Z,98106.41
2022-07-31T19:47:13.023Z,98103.82
2022-07-31T19:49:46.112Z,98101.81
2022-07-31T19:52:19.728Z,98104.98
2022-07-31T19:54:50.615Z,98105.46
2022-07-31T19:57:20.389Z,98105.13
2022-07-31T19:59:50.868Z,98101.69
2022-07-31T20:02:25.786Z,98105.96
2022-07-31T20:04:58.125Z,98105.60
2022-07-31T20:07:32.742Z,98103.45
2022-07-31T20:10:06.754Z,98105.60
2022-07-31T20:12:36.948Z,98103.66
2022-07-31T20:15:08.139Z,98102.48
2022-07-31T20:17:38.376Z,98096.84
2022-07-31T20:20:15.595Z,98108.61
2022-07-31T20:22:47.432Z,98105.30
2022-07-31T20:25:20.513Z,98100.92
2022-07-31T20:27:50.762Z,98106.85
2022-07-31T20:30:23.799Z,98101.07
2022-07-31T20:32:54.635Z,98104.73
2022-07-31T20:35:31.241Z,98104.05
2022-07-31T20:38:21.346Z,98102.28
2022-07-31T20:40:55.689Z,98105.27
2022-07-31T20:43:27.188Z,98105.95
2022-07-31T20:45:57.540Z,98107.17
2022-07-31T20:48:30.762Z,98107.47
2022-07-31T20:51:00.724Z,98105.09
2022-07-31T20:53:30.432Z,98104.62
2022-07-31T20:56:00.131Z,98106.50
2022-07-31T20:58:28.997Z,98107.00
2022-07-31T21:00:57.897Z,98102.52
2022-07-31T21:03:26.857Z,98102.35
2022-07-31T21:05:56.229Z,98097.24
2022-07-31T21:08:25.423Z,98102.95
2022-07-31T21:10:54.550Z,98098.62
2022-07-31T21:13:25.953Z,98095.86
2022-07-31T21:15:55.583Z,98095.52
2022-07-31T21:18:24.538Z,98094.73
2022-07-31T21:20:53.974Z,98097.11
2022-07-31T21:23:24.091Z,98099.40
2022-07-31T21:25:54.255Z,98098.00
2022-07-31T21:28:28.632Z,98096.56
2022-07-31T21:31:01.516Z,98098.34
2022-07-31T21:33:31.202Z,98095.47
2022-07-31T21:36:01.311Z,98098.41
2022-07-31T21:38:30.846Z,98101.84
2022-07-31T21:41:00.608Z,98100.65
2022-07-31T21:43:33.484Z,98095.74
2022-07-31T21:46:22.761Z,98098.39
2022-07-31T21:48:52.990Z,98099.15
2022-07-31T21:51:22.541Z,98101.84
2022-07-31T21:53:55.275Z,98100.05
2022-07-31T21:56:24.304Z,98098.73
2022-07-31T21:58:53.168Z,98099.02
2022-07-31T22:01:22.642Z,98101.20
2022-07-31T22:03:51.604Z,98098.39
2022-07-31T22:06:39.066Z,98101.39
2022-07-31T22:09:08.259Z,98101.27
2022-07-31T22:11:37.154Z,98100.70
2022-07-31T22:14:06.008Z,98106.70
2022-07-31T22:16:36.678Z,98108.47
2022-07-31T22:19:08.932Z,98113.33
2022-07-31T22:21:38.403Z,98114.38
2022-07-31T22:24:10.094Z,98113.81
2022-07-31T22:27:02.074Z,98113.55
2022-07-31T22:29:35.881Z,98115.02
2022-07-31T22:32:06.081Z,98118.20
2022-07-31T22:34:37.639Z,98119.61
2022-07-31T22:37:08.574Z,98119.31
2022-07-31T22:39:38.572Z,98117.21
2022-07-31T22:42:08.855Z,98117.88
2022-07-31T22:44:40.658Z,98115.38
2022-07-31T22:47:10.823Z,98115.08
2022-07-31T22:49:40.340Z,98116.02
2022-07-31T22:52:11.463Z,98119.06
2022-07-31T22:54:40.728Z,98116.17
2022-07-31T22:57:09.593Z,98114.59
2022-07-31T22:59:38.997Z,98111.19
2022-07-31T23:02:15.396Z,98110.73
2022-07-31T23:04:44.509Z,98107.62
2022-07-31T23:07:13.286Z,98107.09
2022-07-31T23:09:42.423Z,98108.38
2022-07-31T23:12:11.668Z,98105.45
2022-07-31T23:14:40.605Z,98104.56
2022-07-31T23:17:09.365Z,98101.40
2022-07-31T23:19:54.067Z,98102.33
2022-07-31T23:22:33.190Z,98098.44
2022-07-31T23:25:04.681Z,98103.40
2022-07-31T23:27:34.298Z,98109.14
2022-07-31T23:30:03.890Z,98109.08
2022-07-31T23:32:33.440Z,98109.79
2022-07-31T23:35:02.208Z,98114.26
2022-07-31T23:37:31.004Z,98114.80
2022-07-31T23:40:00.457Z,98114.39
2022-07-31T23:42:38.415Z,98118.70
2022-07-31T23:45:11.621Z,98118.33
2022-07-31T23:47:46.227Z,98120.23
2022-07-31T23:50:16.370Z,98118.70
2022-07-31T23:52:45.866Z,98119.20
2022-07-31T23:55:14.660Z,98120.45
2022-07-31T23:57:43.449Z,98122.96
